Baghdad, Iraq
Current Conditions -  °F | °C
As of 11:30 PM on Friday 24 Oct 2014 (Local Time) from ORBI Reporting Station
Clear Clear  
Wind Chill: 66°   Ceiling: Unl
Heat Index: 66°   Visibility: 6mi
Dew Point: 46°   Wind: 6mph
Humidity: 49%   Direction: 330°NNW
Pressure: 29.97"   Gusts: NA
Location:  33.33°N, 44.44°E
Report Text: ORBI 242030Z 33005KT CAVOK 19/08 Q1015
Loading
Personal Weather Stations






























Interactive Weather Map
Tropical Storm Tracking
New forecast layout! Learn more

10-Day Weather Forecast

Advertisements
Track Severe Weather on mobile